Darstellungsparameter: Aktuell verwendete Einstellungen:
Skalierung der Graphiken ... ?
xyx+y,   Skalierungsfaktor:      Skalierung: Modus: x, Faktor: 1
Darstellungszeitraum ... ?
Vom - - bis: - -   Zeitraum: 18.02.2009 - 18.02.2009
Min/Max/Avg-Anzeige ... ?
Zeige MMA aktuell
Zeige MMA Monat
Zeige MMA alles
Zeige --A aktuell
Zeige --A Monat
Zeige --A alles
Keine MMA-Anzeige
MMA:
Keine MMA-Graphiken
MMA-Basis: 18.02.2009 - 18.02.2009
Quicknavigation für Darstellung... ?
Tage:      1T, 2T, 3T, 5T -1T -2T -3T -5T +1T +2T +3T +5T
Wochen: 1W, 2W, 3W -1W -2W -3W +1W +2W +3W
Monate: 1M, 3M, 6M -1M -3M -6M +1M +3M +6M
Jahre:    1J, 3J, 5J, 10J -1J -3J -5J -10J +1J +3J +5J +10J
Nutze für die Darstellung ... ?
Originaldaten oder Mittelwerte auf ...
Stundenbasis Tagesbasis Wochenbasis
Monatsbasis Jahresbasis      Datenbasis: Original-Daten
Darstellen als:
Statistik (Auto) Statistik J:M      Darstellung:
Zur Graphik,    zurück zur Übersicht aller Sensoren.
 
Tabellarische Datenbersicht: ?
 
Sensor: Nr:Datum:Temp:Feuchte:Taupunkt:
Aussen-T/F 1 18-02-2009 00:05:36 -2.8 C 63 % -8.85 C
2 18-02-2009 00:17:36 -2.9 C 64 % -8.74 C
3 18-02-2009 00:29:37 -2.9 C 65 % -8.55 C
4 18-02-2009 00:41:37 -3 C 66 % -8.45 C
5 18-02-2009 00:53:37 -3.2 C 65 % -8.83 C
6 18-02-2009 01:05:37 -3.3 C 65 % -8.93 C
7 18-02-2009 01:17:37 -3.4 C 65 % -9.02 C
8 18-02-2009 01:29:37 -3.5 C 66 % -8.92 C
9 18-02-2009 01:41:37 -3.5 C 66 % -8.92 C
10 18-02-2009 01:53:37 -3.6 C 66 % -9.02 C
11 18-02-2009 02:05:37 -3.7 C 66 % -9.11 C
12 18-02-2009 02:17:37 -3.7 C 67 % -8.92 C
13 18-02-2009 02:29:37 -3.7 C 68 % -8.73 C
14 18-02-2009 02:41:37 -3.8 C 68 % -8.83 C
15 18-02-2009 02:53:37 -4 C 68 % -9.02 C
16 18-02-2009 03:05:37 -4 C 69 % -8.83 C
17 18-02-2009 03:17:37 -4.1 C 69 % -8.93 C
18 18-02-2009 03:29:37 -4.3 C 69 % -9.12 C
19 18-02-2009 03:41:37 -4.3 C 70 % -8.94 C
20 18-02-2009 03:53:37 -4.5 C 70 % -9.13 C
21 18-02-2009 04:05:37 -4.5 C 70 % -9.13 C
22 18-02-2009 04:17:37 -4.7 C 70 % -9.32 C
23 18-02-2009 04:29:37 -4.8 C 70 % -9.42 C
24 18-02-2009 04:41:38 -4.8 C 70 % -9.42 C
25 18-02-2009 04:53:38 -4.9 C 70 % -9.52 C
Sensor: Nr:Datum:Temp:Feuchte:Taupunkt:
Aussen-T/F 26 18-02-2009 05:05:38 -4.9 C 70 % -9.52 C
27 18-02-2009 05:17:38 -5.1 C 71 % -9.53 C
28 18-02-2009 05:29:38 -5 C 72 % -9.25 C
29 18-02-2009 05:41:38 -5.1 C 72 % -9.35 C
30 18-02-2009 05:53:38 -5.4 C 72 % -9.64 C
31 18-02-2009 06:05:38 -5.5 C 72 % -9.74 C
32 18-02-2009 06:17:38 -5.6 C 72 % -9.83 C
33 18-02-2009 06:29:38 -5.7 C 73 % -9.75 C
34 18-02-2009 06:41:38 -5.5 C 73 % -9.56 C
35 18-02-2009 06:53:38 -5.5 C 74 % -9.39 C
36 18-02-2009 07:05:36 -5.7 C 74 % -9.58 C
37 18-02-2009 07:17:35 -6.1 C 73 % -10.14 C
38 18-02-2009 07:29:36 -6.2 C 73 % -10.24 C
39 18-02-2009 07:41:36 -5.9 C 74 % -9.78 C
40 18-02-2009 07:53:35 -5.8 C 75 % -9.51 C
41 18-02-2009 08:05:35 -5.7 C 75 % -9.41 C
42 18-02-2009 08:17:35 -5.6 C 76 % -9.15 C
43 18-02-2009 08:29:35 -5.8 C 76 % -9.34 C
44 18-02-2009 08:41:35 -5.9 C 76 % -9.44 C
45 18-02-2009 08:53:34 -5.7 C 76 % -9.24 C
46 18-02-2009 09:05:35 -5.7 C 76 % -9.24 C
47 18-02-2009 09:17:35 -5.5 C 77 % -8.88 C
48 18-02-2009 09:29:34 -5.4 C 77 % -8.79 C
49 18-02-2009 09:41:34 -4.9 C 77 % -8.3 C
50 18-02-2009 09:53:35 -4.7 C 77 % -8.11 C
Sensor: Nr:Datum:Temp:Feuchte:Taupunkt:
Aussen-T/F 51 18-02-2009 10:05:34 -4.2 C 77 % -7.62 C
52 18-02-2009 10:17:34 -3.5 C 75 % -7.28 C
53 18-02-2009 10:29:34 -2.4 C 70 % -7.11 C
54 18-02-2009 10:41:34 -1.7 C 62 % -8.01 C
55 18-02-2009 10:53:34 -1.3 C 57 % -8.71 C
56 18-02-2009 11:05:34 -1.5 C 54 % -9.59 C
57 18-02-2009 11:17:33 -1.3 C 54 % -9.4 C
58 18-02-2009 11:29:33 -1 C 52 % -9.6 C
59 18-02-2009 11:41:33 -0.7 C 46 % -10.87 C
60 18-02-2009 11:53:33 -0.3 C 48 % -9.97 C
61 18-02-2009 12:05:33 0 C 48 % -9.67 C
62 18-02-2009 12:17:32 0.2 C 48 % -9.49 C
63 18-02-2009 12:29:33 0.5 C 46 % -9.75 C
64 18-02-2009 12:41:33 0.7 C 45 % -9.85 C
65 18-02-2009 12:53:32 1.1 C 40 % -10.96 C
66 18-02-2009 13:05:32 1.9 C 38 % -10.89 C
67 18-02-2009 13:17:33 2.3 C 36 % -11.21 C
68 18-02-2009 13:29:32 2.7 C 35 % -11.2 C
69 18-02-2009 13:41:32 2.8 C 31 % -12.62 C
70 18-02-2009 13:53:32 3.6 C 25 % -14.55 C
71 18-02-2009 14:05:32 3.6 C 25 % -14.55 C
72 18-02-2009 14:17:32 4.4 C 20 % -16.55 C
73 18-02-2009 14:29:31 4.8 C 20 % -16.22 C
74 18-02-2009 14:41:31 5.5 C 20 % -15.64 C
75 18-02-2009 14:53:32 5.7 C 20 % -15.47 C
Sensor: Nr:Datum:Temp:Feuchte:Taupunkt:
Aussen-T/F 76 18-02-2009 15:05:31 5.9 C 20 % -15.3 C
77 18-02-2009 15:17:31 5.5 C 20 % -15.64 C
78 18-02-2009 15:29:31 5.7 C 20 % -15.47 C
79 18-02-2009 15:41:31 6 C 20 % -15.22 C
80 18-02-2009 15:53:31 6 C 20 % -15.22 C
81 18-02-2009 16:05:31 6.7 C 20 % -14.64 C
82 18-02-2009 16:17:30 6.9 C 20 % -14.47 C
83 18-02-2009 16:29:31 5.1 C 20 % -15.97 C
84 18-02-2009 16:41:31 5.5 C 20 % -15.64 C
85 18-02-2009 16:53:30 5.7 C 20 % -15.47 C
86 18-02-2009 17:05:30 5.4 C 20 % -15.72 C
87 18-02-2009 17:17:30 4.7 C 25 % -13.61 C
88 18-02-2009 17:29:30 3.2 C 30 % -12.67 C
89 18-02-2009 17:41:30 1.9 C 37 % -11.22 C
90 18-02-2009 17:53:30 1 C 41 % -10.75 C
91 18-02-2009 18:05:29 0.4 C 43 % -10.69 C
92 18-02-2009 18:17:29 -0.1 C 46 % -10.32 C
93 18-02-2009 18:29:30 -0.4 C 48 % -10.06 C
94 18-02-2009 18:41:30 -0.6 C 49 % -9.98 C
95 18-02-2009 18:53:29 -0.9 C 52 % -9.51 C
96 18-02-2009 19:05:29 -1 C 50 % -10.1 C
97 18-02-2009 19:17:29 -1.2 C 51 % -10.03 C
98 18-02-2009 19:29:29 -1.3 C 51 % -10.12 C
99 18-02-2009 19:41:29 -1.4 C 53 % -9.73 C
100 18-02-2009 19:53:28 -1.6 C 53 % -9.92 C
Sensor: Nr:Datum:Temp:Feuchte:Taupunkt:
Aussen-T/F 101 18-02-2009 20:05:29 -1.7 C 54 % -9.77 C
102 18-02-2009 20:17:28 -1.8 C 55 % -9.63 C
103 18-02-2009 20:29:28 -1.9 C 55 % -9.73 C
104 18-02-2009 20:41:28 -2 C 55 % -9.82 C
105 18-02-2009 20:53:28 -2.1 C 53 % -10.38 C
106 18-02-2009 21:05:28 -2.2 C 55 % -10.01 C
107 18-02-2009 21:17:28 -2.3 C 55 % -10.1 C
108 18-02-2009 21:29:27 -2.3 C 54 % -10.33 C
109 18-02-2009 21:41:27 -2.4 C 53 % -10.66 C
110 18-02-2009 21:53:28 -2.6 C 57 % -9.93 C
111 18-02-2009 22:06:27 -2.7 C 58 % -9.81 C
112 18-02-2009 22:18:27 -2.9 C 59 % -9.78 C
113 18-02-2009 22:30:27 -2.9 C 60 % -9.57 C
114 18-02-2009 22:42:27 -2.9 C 61 % -9.36 C
115 18-02-2009 22:54:27 -3.1 C 61 % -9.55 C
116 18-02-2009 23:06:27 -3.3 C 61 % -9.73 C
117 18-02-2009 23:18:27 -3.2 C 62 % -9.43 C
118 18-02-2009 23:30:27 -2.9 C 62 % -9.15 C
119 18-02-2009 23:42:28 -2.7 C 61 % -9.17 C
120 18-02-2009 23:54:28 -2.5 C 61 % -8.98 C

Legende:
   Min
   Max


Maximal/Minimal-Werte vom 18.02.2009 - 18.02.2009

Sensor Min Max Avg
Temp
(Aussen-T/F)
-6.2 °C
18-02-2009  07:29:36
6.9 °C
18-02-2009  16:17:30
-1.63 °C
Feuchte
(Aussen-T/F)
20 %
18-02-2009  14:17:32
77 %
18-02-2009  09:17:35
55.26 %
Taupunkt
(Aussen-T/F)
-16.55 C
18-02-2009  14:17:32
-7.11 C
18-02-2009  10:29:34
-10.32 C

Die Daten stammen von einer Davis Vantage Pro 2 Wetter-Station und werden unter Linux mit der Software wview2wettercgi und aufbereitet. Alle Angaben erfolgen ohne Gewähr für ihre Vollständigkeit oder Richtigkeit.
Kontakt: Rainer Krienke krienke@uni-koblenz.de . Meine Webseiten an der Uni Koblenz oder privat.
Version: $Revision: 0.78 $